Sawyer International Airport
KSAW : now visible

Airfield :











YOU CAN JOIN US ON...

 
LOGIN :

Register | Disclaimer

   EN    FR    IT 

 









Legend :    VFR   Marginal VFR   IFR   Intensive IFR   Very Intensive IFR
Visi :
Ceiling :
>= 8 km
>= 3000ft
5 to 8 km
1000 to 3000 ft
1500m to 5 km
500 to 1000 ft
800 to 1500m
200 to 500 ft
< 800m
< 200 ft
Symbols :   Thunderstorms  Fog  Heavy snow  Heavy precipitations  Wind > 20 kt






- Airport Elevation : 1221 ft


KSAW - Sawyer International

CURRENT METAR :
  • 120458Z AUTO 00000KT 10SM CLR M18/M21 A3036 RMK AO2 T11821209

EXPIRED METARs :
  • 120438Z AUTO 00000KT 10SM CLR M18/M21 A3036 RMK AO2 T11801206
  • 120418Z AUTO 19003KT 10SM CLR M18/M20 A3036 RMK AO2 T11821205
  • 120359Z AUTO 17003KT 7SM CLR M19/M21 A3036 RMK AO2 T11871210
  • 120338Z AUTO 16003KT 10SM CLR M18/M21 A3036 RMK AO2 T11841208
  • 120318Z AUTO 00000KT 10SM CLR M18/M21 A3036 RMK AO2 T11821207
  • 120245Z 21004KT 10SM SKC M19/M21 A3035

TAF KSAW
Valid from the 12 at 00:00 until the 13 at 00:00 UTC


112338Z 1200/1224 24008KT P6SM SKC
FM121000 VRB03KT P6SM VCSH OVC050
FM121100 VRB03KT 5SM BR VCSH OVC040
FM121400 VRB04KT 3/4SM -SN OVC010
FM122300 07007KT 2SM -SN BR OVC009



MET'MAP, your aeronautical weather chart ! - Copyright ORBIFLY December 2007 - Disclaimer

ORBIFLY MET'MAP TEAM :

Programming & Development : Alexandra Zaïnal
Concept & original design : Baudouin d'Aumeries
Assistance for programming : Marc-Olivier Méhu
Technical & hardware support : Manuel Goepfert

Contact : metmap@orbifly.com




SOURCES & CREDITS :

   NOAA       Earth
Advisory